Time;durP1;ratioP1;P1;durP2;ratioP2;P2;SDS_P1;SDS_P2;PMS_P1;PMS_P2;Temp;Humidity;BMP_temperature;BMP_pressure;BME280_temperature;BME280_humidity;BME280_pressure;Samples;Min_cycle;Max_cycle;Signal;HPM_P1;HPM_P2
2023/09/27 00:01:05;;;;;;;5.10;3.93;;;13.30;99.90;;;;;;5031003;28;20407;-60
2023/09/27 00:03:32;;;;;;;4.47;4.07;;;13.30;99.90;;;;;;5030756;28;20210;-61
2023/09/27 00:05:58;;;;;;;4.50;4.10;;;13.20;99.90;;;;;;5030397;28;20217;-60
2023/09/27 00:08:26;;;;;;;5.50;4.37;;;13.20;99.90;;;;;;5030951;28;20242;-60
2023/09/27 00:10:53;;;;;;;5.10;4.30;;;13.20;99.90;;;;;;5031440;28;20329;-60
2023/09/27 00:13:19;;;;;;;5.23;4.33;;;13.20;99.90;;;;;;5031306;28;20201;-59
2023/09/27 00:15:47;;;;;;;4.77;4.27;;;13.10;99.90;;;;;;5031238;28;20218;-60
2023/09/27 00:18:14;;;;;;;6.87;4.60;;;13.20;99.90;;;;;;5031294;28;20231;-61
2023/09/27 00:20:41;;;;;;;5.00;4.60;;;13.20;99.90;;;;;;5030414;28;20198;-61
2023/09/27 00:23:08;;;;;;;5.40;4.27;;;13.20;99.90;;;;;;5030902;28;20613;-61
2023/09/27 00:25:35;;;;;;;5.20;4.53;;;13.20;99.90;;;;;;5029952;28;20736;-61
2023/09/27 00:28:02;;;;;;;6.33;4.00;;;13.20;99.90;;;;;;5032526;28;20217;-61
2023/09/27 00:30:29;;;;;;;4.20;3.80;;;13.10;99.90;;;;;;5034534;28;20270;-61
2023/09/27 00:32:57;;;;;;;5.10;4.13;;;13.10;99.90;;;;;;5034533;28;20584;-60
2023/09/27 00:35:23;;;;;;;5.43;3.90;;;13.10;99.90;;;;;;5034519;28;20284;-60
2023/09/27 00:37:51;;;;;;;4.50;4.10;;;13.10;99.90;;;;;;5034908;28;20209;-61
2023/09/27 00:40:21;;;;;;;4.70;3.90;;;13.10;99.90;;;;;;5034697;28;20305;-61
2023/09/27 00:42:48;;;;;;;4.97;4.13;;;13.10;99.90;;;;;;5034706;28;20248;-61
2023/09/27 00:45:16;;;;;;;4.77;4.37;;;13.20;99.90;;;;;;5034324;28;20694;-61
2023/09/27 00:47:44;;;;;;;4.33;3.93;;;13.10;99.90;;;;;;5034534;28;20206;-62
2023/09/27 00:50:12;;;;;;;6.17;4.17;;;13.20;99.90;;;;;;5034109;28;20648;-61
2023/09/27 00:52:40;;;;;;;4.70;4.20;;;13.10;99.90;;;;;;5034235;28;20250;-61
2023/09/27 00:55:10;;;;;;;6.30;4.10;;;13.10;99.90;;;;;;5033843;28;20211;-61
2023/09/27 00:57:37;;;;;;;4.30;3.90;;;13.00;99.90;;;;;;5034144;28;20712;-61
2023/09/27 01:00:05;;;;;;;4.83;4.37;;;12.90;99.90;;;;;;5034211;28;20226;-60
2023/09/27 01:02:33;;;;;;;5.50;4.27;;;12.90;99.90;;;;;;5033905;28;20206;-61
2023/09/27 01:05:00;;;;;;;4.60;3.97;;;12.90;99.90;;;;;;5033793;28;20672;-61
2023/09/27 01:07:29;;;;;;;4.57;3.93;;;12.90;99.90;;;;;;5033922;28;20236;-61
2023/09/27 01:09:55;;;;;;;4.47;4.07;;;12.80;99.90;;;;;;5034049;28;20210;-61
2023/09/27 01:12:22;;;;;;;4.37;3.97;;;12.70;99.90;;;;;;5033826;28;20206;-61
2023/09/27 01:14:50;;;;;;;4.90;4.40;;;12.80;99.90;;;;;;5033922;28;20660;-61
2023/09/27 01:17:17;;;;;;;4.40;3.70;;;12.70;99.90;;;;;;5033917;28;20234;-61
2023/09/27 01:19:44;;;;;;;5.33;3.87;;;12.70;99.90;;;;;;5033694;28;20661;-61
2023/09/27 01:22:10;;;;;;;4.40;4.00;;;12.60;99.90;;;;;;5033728;28;20221;-60
2023/09/27 01:24:39;;;;;;;4.33;3.93;;;12.50;99.90;;;;;;5033760;28;20214;-61
2023/09/27 01:27:10;;;;;;;6.73;4.40;;;12.50;99.90;;;;;;5033393;28;20222;-62
2023/09/27 01:29:36;;;;;;;4.60;4.07;;;12.50;99.90;;;;;;5033318;28;20687;-61
2023/09/27 01:32:03;;;;;;;4.20;3.80;;;12.50;99.90;;;;;;5033618;28;20582;-62
2023/09/27 01:34:30;;;;;;;5.17;4.60;;;12.50;99.90;;;;;;5033375;28;20209;-62
2023/09/27 01:36:57;;;;;;;5.17;4.03;;;12.40;99.90;;;;;;5033222;28;20708;-61
2023/09/27 01:39:25;;;;;;;4.70;4.30;;;12.30;99.90;;;;;;5032896;28;20247;-62
2023/09/27 01:41:53;;;;;;;5.13;4.33;;;12.40;99.90;;;;;;5033223;28;20575;-61
2023/09/27 01:44:20;;;;;;;4.83;4.33;;;12.40;99.90;;;;;;5033406;28;20207;-62
2023/09/27 01:46:46;;;;;;;4.73;4.33;;;12.40;99.90;;;;;;5033207;28;20472;-61
2023/09/27 01:49:14;;;;;;;5.00;4.47;;;12.40;99.90;;;;;;5033369;28;20288;-61
2023/09/27 01:51:40;;;;;;;5.17;4.33;;;12.30;99.90;;;;;;5033144;28;20233;-62
2023/09/27 01:54:07;;;;;;;4.53;4.13;;;12.30;99.90;;;;;;5033445;28;20213;-61
2023/09/27 01:56:34;;;;;;;4.80;4.33;;;12.40;99.90;;;;;;5033043;28;20746;-62
2023/09/27 01:59:02;;;;;;;4.80;4.10;;;12.40;99.90;;;;;;5033856;28;20206;-61
2023/09/27 02:01:28;;;;;;;4.77;4.20;;;12.40;99.90;;;;;;5033577;28;20202;-61
2023/09/27 02:03:55;;;;;;;5.50;4.30;;;12.40;99.90;;;;;;5033587;28;20210;-61
2023/09/27 02:06:23;;;;;;;7.47;4.60;;;12.40;99.90;;;;;;5033208;28;20237;-62
2023/09/27 02:08:49;;;;;;;7.10;4.80;;;12.30;99.90;;;;;;5025393;28;20203;-61
2023/09/27 02:11:16;;;;;;;4.70;4.30;;;12.40;99.90;;;;;;5033574;28;20626;-62
2023/09/27 02:13:43;;;;;;;4.93;4.40;;;12.40;99.90;;;;;;5033419;28;20214;-60
2023/09/27 02:16:11;;;;;;;4.73;4.13;;;12.30;99.90;;;;;;5033751;28;20222;-61
2023/09/27 02:18:39;;;;;;;5.50;4.53;;;12.30;99.90;;;;;;5033478;28;20220;-60
2023/09/27 02:21:06;;;;;;;4.77;4.30;;;12.20;99.90;;;;;;5033710;28;20194;-59
2023/09/27 02:23:32;;;;;;;5.13;4.63;;;12.20;99.90;;;;;;5033303;28;20590;-60
2023/09/27 02:25:59;;;;;;;6.87;4.53;;;12.20;99.90;;;;;;5033074;28;20222;-61
2023/09/27 02:28:26;;;;;;;5.60;4.90;;;12.20;99.90;;;;;;5033021;28;20213;-61
2023/09/27 02:30:53;;;;;;;5.57;5.03;;;12.30;99.90;;;;;;5032982;28;20219;-61
2023/09/27 02:33:22;;;;;;;7.53;5.10;;;12.40;99.90;;;;;;5032862;28;20213;-61
2023/09/27 02:35:49;;;;;;;5.83;4.70;;;12.30;99.90;;;;;;5024687;28;20254;-61
2023/09/27 02:38:15;;;;;;;6.30;4.67;;;12.20;99.90;;;;;;5024827;28;20203;-61
2023/09/27 02:40:43;;;;;;;8.03;5.33;;;12.20;99.90;;;;;;5022296;28;20225;-63
2023/09/27 02:43:09;;;;;;;5.50;5.00;;;12.30;99.90;;;;;;5021815;28;20199;-60
2023/09/27 02:45:36;;;;;;;6.80;4.73;;;12.40;99.90;;;;;;5023711;28;20230;-59
2023/09/27 02:48:04;;;;;;;5.30;4.77;;;12.40;99.90;;;;;;5026161;28;20256;-60
2023/09/27 02:50:32;;;;;;;6.73;4.50;;;12.40;99.90;;;;;;5022782;28;20258;-60
2023/09/27 02:52:59;;;;;;;4.60;4.20;;;12.40;99.90;;;;;;5020980;28;20231;-60
2023/09/27 02:55:26;;;;;;;4.77;4.37;;;12.40;99.90;;;;;;5020578;28;20649;-60
2023/09/27 02:57:53;;;;;;;5.77;4.77;;;12.40;99.90;;;;;;5024647;28;20268;-61
2023/09/27 03:00:20;;;;;;;5.30;4.80;;;12.40;99.90;;;;;;5024602;28;20264;-60
2023/09/27 03:02:47;;;;;;;5.23;4.73;;;12.40;99.90;;;;;;5020931;28;20295;-60
2023/09/27 03:05:14;;;;;;;7.10;4.87;;;12.40;99.90;;;;;;5020409;28;20207;-62
2023/09/27 03:07:44;;;;;;;6.80;4.70;;;12.40;99.90;;;;;;5021027;28;20293;-62
2023/09/27 03:10:11;;;;;;;6.70;4.90;;;12.40;99.90;;;;;;5021119;28;20207;-63
2023/09/27 03:12:39;;;;;;;5.77;5.27;;;12.40;99.90;;;;;;5022488;28;20314;-62
2023/09/27 03:15:10;;;;;;;6.00;5.00;;;12.40;99.90;;;;;;5023720;28;20230;-61
2023/09/27 03:17:37;;;;;;;9.67;5.73;;;12.30;99.90;;;;;;5021961;28;20221;-61
2023/09/27 03:20:08;;;;;;;6.30;5.70;;;12.20;99.90;;;;;;5020552;28;20581;-62
2023/09/27 03:22:35;;;;;;;6.87;5.57;;;12.20;99.90;;;;;;5021806;28;20657;-61
2023/09/27 03:25:04;;;;;;;6.83;5.90;;;12.20;99.90;;;;;;5023946;28;20209;-63
2023/09/27 03:27:31;;;;;;;7.83;6.20;;;12.20;99.90;;;;;;5022693;28;20314;-61
2023/09/27 03:29:57;;;;;;;7.63;6.10;;;12.30;99.90;;;;;;5020196;28;20594;-62
2023/09/27 03:32:24;;;;;;;6.77;6.17;;;12.30;99.90;;;;;;5019965;28;20237;-63
2023/09/27 03:34:51;;;;;;;8.60;6.60;;;12.50;99.90;;;;;;5023377;28;20601;-60
2023/09/27 03:37:18;;;;;;;8.57;6.13;;;12.50;99.90;;;;;;5031341;28;20233;-60
2023/09/27 03:39:45;;;;;;;7.30;6.60;;;12.60;99.90;;;;;;5031577;28;20209;-60
2023/09/27 03:42:13;;;;;;;6.53;5.93;;;12.60;99.90;;;;;;5031609;28;20198;-60
2023/09/27 03:44:40;;;;;;;7.00;6.33;;;12.70;99.90;;;;;;5031353;28;20210;-61
2023/09/27 03:47:07;;;;;;;7.20;6.50;;;12.70;99.90;;;;;;5031083;28;20233;-62
2023/09/27 03:49:34;;;;;;;7.77;6.57;;;12.70;99.90;;;;;;5031455;28;20257;-60
2023/09/27 03:52:01;;;;;;;8.90;6.70;;;12.70;99.90;;;;;;5031333;28;20221;-61
2023/09/27 03:54:28;;;;;;;7.57;5.40;;;12.70;99.90;;;;;;5031090;28;20210;-60
2023/09/27 03:56:55;;;;;;;5.23;4.57;;;12.70;99.90;;;;;;5030885;28;20226;-61
2023/09/27 03:59:23;;;;;;;5.77;3.90;;;12.50;99.90;;;;;;5031133;28;20217;-61
2023/09/27 04:01:50;;;;;;;3.87;3.57;;;12.30;99.90;;;;;;5031243;28;20209;-60
2023/09/27 04:04:16;;;;;;;5.67;4.27;;;12.10;99.90;;;;;;5030950;28;20664;-62
2023/09/27 04:06:43;;;;;;;9.17;4.60;;;11.80;99.90;;;;;;5030744;28;20234;-61
2023/09/27 04:09:10;;;;;;;6.07;4.47;;;11.80;99.90;;;;;;5031450;28;20209;-61
2023/09/27 04:11:37;;;;;;;4.93;4.30;;;11.80;99.90;;;;;;5030867;28;20233;-61
2023/09/27 04:14:05;;;;;;;5.73;4.67;;;11.80;99.90;;;;;;5030894;28;20641;-61
2023/09/27 04:16:33;;;;;;;5.10;4.23;;;11.80;99.90;;;;;;5030830;28;20654;-60
2023/09/27 04:19:00;;;;;;;7.60;4.80;;;11.80;99.90;;;;;;5030956;28;20562;-60
2023/09/27 04:21:27;;;;;;;8.43;4.97;;;11.80;99.90;;;;;;5030977;28;20205;-59
2023/09/27 04:23:59;;;;;;;8.27;6.70;;;11.80;99.90;;;;;;5030971;28;20676;-61
2023/09/27 04:26:26;;;;;;;6.93;5.40;;;11.80;99.90;;;;;;5030710;28;20691;-61
2023/09/27 04:28:53;;;;;;;5.20;4.43;;;11.70;99.90;;;;;;5030888;28;20221;-60
2023/09/27 04:31:20;;;;;;;5.33;4.63;;;11.70;99.90;;;;;;5031213;28;20228;-60
2023/09/27 04:33:49;;;;;;;8.53;5.50;;;11.70;99.90;;;;;;5031117;28;20388;-60
2023/09/27 04:36:17;;;;;;;6.20;5.40;;;11.70;99.90;;;;;;5031085;28;20692;-62
2023/09/27 04:38:45;;;;;;;9.33;5.80;;;11.80;99.90;;;;;;5030781;28;20214;-60
2023/09/27 04:41:14;;;;;;;10.00;5.70;;;11.80;99.90;;;;;;5030572;28;20198;-61
2023/09/27 04:43:41;;;;;;;7.83;6.50;;;11.70;99.90;;;;;;5031131;28;20206;-60
2023/09/27 04:46:08;;;;;;;9.40;6.20;;;11.80;99.90;;;;;;5030892;28;20226;-63
2023/09/27 04:48:35;;;;;;;8.77;6.23;;;11.80;99.90;;;;;;5030974;28;20210;-61
2023/09/27 04:51:04;;;;;;;8.70;7.27;;;11.80;99.90;;;;;;5031171;28;20206;-62
2023/09/27 04:53:34;;;;;;;7.60;6.30;;;11.70;99.90;;;;;;5030879;28;20225;-60
2023/09/27 04:56:01;;;;;;;11.23;6.47;;;11.70;99.90;;;;;;5030662;28;20233;-61
2023/09/27 04:58:28;;;;;;;8.23;6.27;;;11.70;99.90;;;;;;5030511;28;20675;-62
2023/09/27 05:00:55;;;;;;;7.33;6.63;;;11.60;99.90;;;;;;5030802;28;20210;-62
2023/09/27 05:03:22;;;;;;;9.17;6.50;;;11.70;99.90;;;;;;5030755;28;20210;-62
2023/09/27 05:05:48;;;;;;;8.77;6.87;;;11.70;99.90;;;;;;5029950;28;20613;-60
2023/09/27 05:08:17;;;;;;;7.67;6.73;;;11.70;99.90;;;;;;5030559;28;20202;-61
2023/09/27 05:10:43;;;;;;;7.47;6.77;;;11.80;99.90;;;;;;5030845;28;20211;-60
2023/09/27 05:13:10;;;;;;;9.27;6.70;;;11.70;99.90;;;;;;5030831;28;20218;-61
2023/09/27 05:15:37;;;;;;;10.30;6.77;;;11.70;99.90;;;;;;5034405;28;20601;-61
2023/09/27 05:18:04;;;;;;;7.33;6.30;;;11.70;99.90;;;;;;5034210;28;20221;-63
2023/09/27 05:20:31;;;;;;;7.53;6.80;;;11.80;99.90;;;;;;5033844;28;20234;-61
2023/09/27 05:22:57;;;;;;;11.90;6.80;;;11.80;99.90;;;;;;5033531;28;20198;-62
2023/09/27 05:25:25;;;;;;;9.27;6.57;;;11.90;99.90;;;;;;5033536;28;20672;-61
2023/09/27 05:27:52;;;;;;;7.67;6.87;;;11.90;99.90;;;;;;5033599;28;20260;-60
2023/09/27 05:30:21;;;;;;;9.17;6.40;;;11.90;99.90;;;;;;5033579;28;20389;-60
2023/09/27 05:32:47;;;;;;;8.97;6.77;;;11.90;99.90;;;;;;5033406;28;20700;-59
2023/09/27 05:35:14;;;;;;;13.53;7.13;;;12.00;99.90;;;;;;5033242;28;20249;-59
2023/09/27 05:37:42;;;;;;;6.97;6.27;;;12.00;99.90;;;;;;5033793;28;20231;-61
2023/09/27 05:40:10;;;;;;;7.53;6.70;;;12.10;99.90;;;;;;5034081;28;20230;-61
2023/09/27 05:42:39;;;;;;;11.00;7.40;;;12.10;99.90;;;;;;5033708;28;20653;-61
2023/09/27 05:45:08;;;;;;;9.03;7.20;;;12.10;99.90;;;;;;5033146;28;20209;-60
2023/09/27 05:47:36;;;;;;;7.73;6.93;;;12.20;99.90;;;;;;5033001;28;20233;-61
2023/09/27 05:50:04;;;;;;;9.13;7.83;;;12.30;99.90;;;;;;5033087;28;20481;-61
2023/09/27 05:52:31;;;;;;;11.53;7.03;;;12.30;99.90;;;;;;5032977;28;20309;-61
2023/09/27 05:54:58;;;;;;;7.10;6.23;;;12.40;99.90;;;;;;5033099;28;20213;-61
2023/09/27 05:57:25;;;;;;;8.17;6.70;;;12.40;99.90;;;;;;5033373;28;20230;-61
2023/09/27 05:59:53;;;;;;;11.73;6.60;;;12.50;99.90;;;;;;5033959;28;20198;-60
2023/09/27 06:02:20;;;;;;;8.80;6.13;;;12.60;99.90;;;;;;5032997;28;20297;-60
2023/09/27 06:04:48;;;;;;;8.93;6.90;;;12.70;99.90;;;;;;5033050;28;20206;-62
2023/09/27 06:07:17;;;;;;;7.00;6.30;;;12.80;99.90;;;;;;5032646;28;20302;-59
2023/09/27 06:09:44;;;;;;;8.20;6.33;;;12.80;99.90;;;;;;5033081;28;20621;-60
2023/09/27 06:12:12;;;;;;;10.77;5.97;;;12.90;99.90;;;;;;5032656;28;20677;-61
2023/09/27 06:14:39;;;;;;;8.67;6.30;;;12.90;99.90;;;;;;5032725;28;20244;-61
2023/09/27 06:17:07;;;;;;;9.07;6.33;;;13.00;99.90;;;;;;5032644;28;20253;-61
2023/09/27 06:19:34;;;;;;;10.03;5.83;;;13.10;99.90;;;;;;5033146;28;20554;-61
2023/09/27 06:22:04;;;;;;;10.77;6.23;;;13.20;99.90;;;;;;5033081;28;20209;-61
2023/09/27 06:24:30;;;;;;;9.93;6.43;;;13.60;99.90;;;;;;5032787;28;20206;-59
2023/09/27 06:26:58;;;;;;;8.57;5.20;;;14.40;99.90;;;;;;5032486;28;20233;-63
2023/09/27 06:29:24;;;;;;;6.83;5.10;;;15.10;99.90;;;;;;5032819;28;20210;-61
2023/09/27 06:31:53;;;;;;;5.97;4.57;;;15.90;99.90;;;;;;5032354;28;20261;-62
2023/09/27 06:34:21;;;;;;;7.15;4.65;;;17.00;99.90;;;;;;5032561;28;20305;-61
2023/09/27 06:36:49;;;;;;;6.75;4.57;;;17.80;99.90;;;;;;5031993;28;20230;-62
2023/09/27 06:39:16;;;;;;;7.65;4.22;;;18.50;99.90;;;;;;5032566;28;20509;-61
2023/09/27 06:41:44;;;;;;;5.68;3.83;;;19.10;99.90;;;;;;5032415;28;20213;-62
2023/09/27 06:44:12;;;;;;;11.98;5.32;;;19.40;99.90;;;;;;5032069;28;20273;-62
2023/09/27 06:46:39;;;;;;;6.57;4.30;;;19.80;99.90;;;;;;5032164;28;20229;-62
2023/09/27 06:49:07;;;;;;;4.30;3.35;;;20.30;99.90;;;;;;5032547;28;20218;-62
2023/09/27 06:51:35;;;;;;;4.13;3.53;;;21.10;99.90;;;;;;5032460;28;20228;-62
2023/09/27 06:54:03;;;;;;;5.45;3.65;;;21.70;99.90;;;;;;5032041;28;20213;-61
2023/09/27 06:56:30;;;;;;;5.05;3.40;;;22.20;99.90;;;;;;5031866;28;20238;-62
2023/09/27 06:58:57;;;;;;;4.95;4.45;;;22.80;99.90;;;;;;5031936;28;20737;-62
2023/09/27 07:01:24;;;;;;;6.38;3.33;;;23.40;99.90;;;;;;5032016;28;20210;-62
2023/09/27 07:03:51;;;;;;;6.03;3.08;;;23.90;99.90;;;;;;5031669;28;20272;-61
2023/09/27 07:06:18;;;;;;;5.18;3.20;;;24.50;99.90;;;;;;5031762;28;20236;-62
2023/09/27 07:08:52;;;;;;;4.90;3.47;;;24.90;99.90;;;;;;5031756;28;20350;-62
2023/09/27 07:11:20;;;;;;;5.80;3.50;;;25.10;99.90;;;;;;5031575;28;20264;-62
2023/09/27 07:13:46;;;;;;;5.68;3.30;;;25.40;99.90;;;;;;5031545;28;20257;-62
2023/09/27 07:16:21;;;;;;;5.28;3.20;;;25.70;99.90;;;;;;5031719;28;20712;-62
2023/09/27 07:18:49;;;;;;;6.10;3.35;;;25.30;99.90;;;;;;5031790;28;20210;-62
2023/09/27 07:21:16;;;;;;;4.80;2.95;;;25.10;99.90;;;;;;5031869;28;20206;-61
2023/09/27 07:23:43;;;;;;;3.75;3.08;;;25.20;99.90;;;;;;5031727;28;20198;-61
2023/09/27 07:26:11;;;;;;;5.63;3.20;;;25.10;99.90;;;;;;5031428;28;20238;-62
2023/09/27 07:28:38;;;;;;;4.90;3.10;;;25.00;99.90;;;;;;5032009;28;20284;-63
2023/09/27 07:31:05;;;;;;;3.10;2.80;;;24.90;99.90;;;;;;5032071;28;20237;-67
2023/09/27 07:33:32;;;;;;;4.00;2.90;;;24.90;99.90;;;;;;5031404;28;20222;-59
2023/09/27 07:36:00;;;;;;;7.05;3.30;;;25.00;99.90;;;;;;5030824;28;20226;-65
2023/09/27 07:38:27;;;;;;;7.65;3.15;;;24.80;99.90;;;;;;5031458;28;20240;-61
2023/09/27 07:40:54;;;;;;;8.02;2.88;;;24.20;99.90;;;;;;5031921;28;20245;-61
2023/09/27 07:43:22;;;;;;;3.83;3.10;;;23.80;99.90;;;;;;5031705;28;20217;-61
2023/09/27 07:45:49;;;;;;;4.93;3.38;;;23.20;99.90;;;;;;5032008;28;20230;-60
2023/09/27 07:48:18;;;;;;;4.05;3.03;;;22.50;99.90;;;;;;5031610;28;20478;-59
2023/09/27 07:50:45;;;;;;;3.38;2.95;;;21.50;99.90;;;;;;5031524;28;20637;-59
2023/09/27 07:53:12;;;;;;;6.63;2.90;;;20.90;99.90;;;;;;5031412;28;20221;-58
2023/09/27 07:55:46;;;;;;;5.03;3.58;;;20.20;99.90;;;;;;5030656;28;20229;-59
2023/09/27 07:58:13;;;;;;;5.05;3.10;;;19.50;99.90;;;;;;5030854;28;20582;-57
2023/09/27 08:00:43;;;;;;;6.70;3.10;;;18.90;99.90;;;;;;5030533;28;20234;-58
2023/09/27 08:03:10;;;;;;;4.60;3.13;;;18.50;99.90;;;;;;5030791;28;20293;-58
2023/09/27 08:05:42;;;;;;;4.18;2.67;;;18.30;99.90;;;;;;5030454;28;20241;-58
2023/09/27 08:08:10;;;;;;;4.65;3.13;;;18.10;99.90;;;;;;5031099;28;20202;-58
2023/09/27 08:10:43;;;;;;;3.67;3.00;;;18.00;99.90;;;;;;5030708;28;20264;-58
2023/09/27 08:13:10;;;;;;;3.60;2.95;;;18.00;99.90;;;;;;5030573;28;20713;-57
2023/09/27 08:15:37;;;;;;;3.88;3.22;;;18.10;99.90;;;;;;5030310;28;20230;-58
2023/09/27 08:18:06;;;;;;;4.05;3.20;;;18.20;99.90;;;;;;5030656;28;20648;-58
2023/09/27 08:20:33;;;;;;;4.78;3.10;;;18.20;99.90;;;;;;5030659;28;20642;-58
2023/09/27 08:23:00;;;;;;;3.55;2.90;;;18.30;99.90;;;;;;5022625;28;20202;-58
2023/09/27 08:25:27;;;;;;;3.30;3.00;;;18.40;99.90;;;;;;5030290;28;20280;-58
2023/09/27 08:27:53;;;;;;;4.90;3.28;;;18.40;99.90;;;;;;5030450;28;20206;-58
2023/09/27 08:30:21;;;;;;;3.55;2.97;;;18.40;99.90;;;;;;5030176;28;20206;-57
2023/09/27 08:32:48;;;;;;;5.03;3.20;;;18.20;99.90;;;;;;5030358;28;20253;-58
2023/09/27 08:35:17;;;;;;;3.20;2.72;;;18.40;99.90;;;;;;5030087;28;20210;-58
2023/09/27 08:37:43;;;;;;;3.85;2.88;;;18.50;99.90;;;;;;5030357;28;20735;-58
2023/09/27 08:40:13;;;;;;;3.85;3.03;;;18.60;99.90;;;;;;5030331;28;20210;-58
2023/09/27 08:42:41;;;;;;;3.40;3.00;;;18.80;99.90;;;;;;5030610;28;20325;-58
2023/09/27 08:45:15;;;;;;;3.70;2.53;;;18.90;99.90;;;;;;5030155;28;20202;-58
2023/09/27 08:47:43;;;;;;;3.83;2.80;;;18.90;99.90;;;;;;5030503;28;20213;-59
2023/09/27 08:50:13;;;;;;;4.20;3.40;;;19.00;99.90;;;;;;5033946;28;20217;-59
2023/09/27 08:52:46;;;;;;;5.28;2.90;;;19.10;99.90;;;;;;5034139;28;20229;-62
2023/09/27 08:55:13;;;;;;;7.18;5.78;;;19.20;99.90;;;;;;5020024;28;20207;-62
2023/09/27 08:57:45;;;;;;;14.13;4.00;;;19.40;99.90;;;;;;5025609;28;20683;-59
2023/09/27 09:00:14;;;;;;;11.02;7.97;;;19.40;99.90;;;;;;5022583;28;20282;-60
2023/09/27 09:02:43;;;;;;;7.80;5.30;;;19.50;99.90;;;;;;5023602;28;20206;-58
2023/09/27 09:05:11;;;;;;;6.43;3.70;;;19.60;99.90;;;;;;5025778;28;20218;-59
2023/09/27 09:07:40;;;;;;;6.13;3.20;;;19.70;99.90;;;;;;5025044;28;20297;-61
2023/09/27 09:10:12;;;;;;;4.40;2.72;;;19.80;99.90;;;;;;5022515;28;20210;-59
2023/09/27 09:12:39;;;;;;;6.00;3.80;;;20.00;99.90;;;;;;5020654;28;20234;-59
2023/09/27 09:15:07;;;;;;;6.43;4.65;;;20.20;99.90;;;;;;5029326;28;20203;-59
2023/09/27 09:17:35;;;;;;;5.35;2.70;;;20.40;99.90;;;;;;5020361;28;20622;-61
2023/09/27 09:20:17;;;;;;;3.10;2.60;;;20.50;99.90;;;;;;5018652;28;20213;-59
2023/09/27 09:22:46;;;;;;;6.25;3.80;;;20.60;99.90;;;;;;5024419;28;20214;-60
2023/09/27 09:25:13;;;;;;;7.10;2.40;;;20.70;99.90;;;;;;5022064;28;20261;-58
2023/09/27 09:27:41;;;;;;;3.67;2.40;;;20.90;99.90;;;;;;5030495;28;20246;-59
2023/09/27 09:30:11;;;;;;;2.70;2.30;;;20.80;99.90;;;;;;5022136;28;20218;-59
2023/09/27 09:32:49;;;;;;;3.75;2.70;;;20.90;99.90;;;;;;5029558;28;20278;-59
2023/09/27 09:35:30;;;;;;;3.40;2.30;;;20.90;99.90;;;;;;5021774;28;20242;-59
2023/09/27 09:37:59;;;;;;;5.93;2.50;;;21.00;99.90;;;;;;5023517;28;20600;-58
2023/09/27 09:40:26;;;;;;;5.63;2.55;;;21.10;99.90;;;;;;5021706;28;20695;-60
2023/09/27 09:42:52;;;;;;;3.83;2.45;;;21.10;99.90;;;;;;5023753;28;20613;-59
2023/09/27 09:45:20;;;;;;;4.10;2.40;;;21.10;99.90;;;;;;5024391;28;20220;-58
2023/09/27 09:47:47;;;;;;;3.03;2.25;;;21.20;99.90;;;;;;5023549;28;20256;-61
2023/09/27 09:50:17;;;;;;;5.20;2.50;;;21.40;99.90;;;;;;5021573;28;20345;-60
2023/09/27 09:52:53;;;;;;;3.65;2.20;;;21.60;99.90;;;;;;5020554;28;20234;-64
2023/09/27 09:55:23;;;;;;;5.25;2.22;;;21.70;99.90;;;;;;5020755;28;20207;-59
2023/09/27 09:57:59;;;;;;;4.45;2.55;;;21.80;99.90;;;;;;5022958;28;20264;-60
2023/09/27 10:00:26;;;;;;;5.00;2.25;;;22.00;99.90;;;;;;5024410;28;20216;-61
2023/09/27 10:03:02;;;;;;;3.97;2.40;;;22.00;99.90;;;;;;5022342;28;20202;-60
2023/09/27 10:05:36;;;;;;;3.22;2.50;;;22.10;99.90;;;;;;5020952;28;20226;-60
2023/09/27 10:08:04;;;;;;;5.60;2.55;;;22.30;99.90;;;;;;5018656;28;20206;-61
2023/09/27 10:10:33;;;;;;;3.40;2.25;;;22.40;99.90;;;;;;5032892;28;20295;-60
2023/09/27 10:13:03;;;;;;;4.22;2.38;;;22.50;99.90;;;;;;5015459;28;20696;-61
2023/09/27 10:15:33;;;;;;;3.35;2.30;;;22.60;99.90;;;;;;5032599;28;20261;-60
2023/09/27 10:18:33;;;;;;;2.45;2.17;;;22.70;99.90;;;;;;5017062;28;20285;-60
2023/09/27 10:21:04;;;;;;;2.58;2.10;;;22.70;99.90;;;;;;5021377;28;20711;-62
2023/09/27 10:23:57;;;;;;;3.55;2.33;;;22.70;99.90;;;;;;5021068;28;20207;-63
2023/09/27 10:26:37;;;;;;;3.47;2.03;;;22.90;99.90;;;;;;5020260;28;20230;-59
2023/09/27 10:29:12;;;;;;;2.42;2.05;;;23.00;99.90;;;;;;5020320;28;20207;-59
2023/09/27 10:32:20;;;;;;;3.72;2.10;;;23.10;99.90;;;;;;5020824;28;20236;-60
2023/09/27 10:34:48;;;;;;;4.65;1.92;;;23.20;99.90;;;;;;5022559;28;20237;-59
2023/09/27 10:37:16;;;;;;;2.90;2.22;;;23.50;99.90;;;;;;5019656;28;20265;-59
2023/09/27 10:40:19;;;;;;;3.03;2.10;;;23.50;99.90;;;;;;5021428;28;20219;-59
2023/09/27 10:42:48;;;;;;;3.15;2.40;;;23.50;99.90;;;;;;5031273;28;20241;-58
2023/09/27 10:45:16;;;;;;;3.97;2.13;;;23.60;99.90;;;;;;5020219;28;20233;-61
2023/09/27 10:47:43;;;;;;;5.15;2.05;;;23.80;99.90;;;;;;5020685;28;20249;-61
2023/09/27 10:50:11;;;;;;;7.05;2.80;;;23.90;99.90;;;;;;5031173;28;20726;-58
2023/09/27 10:52:39;;;;;;;3.53;1.83;;;24.20;99.90;;;;;;5020433;28;20280;-60
2023/09/27 10:55:10;;;;;;;2.58;1.60;;;24.30;99.90;;;;;;5031670;28;20256;-59
2023/09/27 10:57:37;;;;;;;3.35;1.80;;;24.40;99.90;;;;;;5023601;28;20214;-61
2023/09/27 11:00:10;;;;;;;2.17;1.80;;;24.30;99.90;;;;;;5032180;28;20202;-60
2023/09/27 11:02:37;;;;;;;2.28;1.83;;;24.40;99.90;;;;;;5023090;28;20693;-62
2023/09/27 11:05:05;;;;;;;1.92;1.50;;;24.50;99.90;;;;;;5022072;28;20235;-61
2023/09/27 11:07:45;;;;;;;1.85;1.50;;;24.50;99.90;;;;;;5020409;28;20259;-62
2023/09/27 11:10:17;;;;;;;1.90;1.63;;;24.60;99.90;;;;;;5019954;28;20707;-61
2023/09/27 11:12:44;;;;;;;2.47;1.60;;;24.80;99.90;;;;;;5026977;28;20218;-60
2023/09/27 11:15:22;;;;;;;1.90;1.40;;;24.90;99.90;;;;;;5019303;28;20228;-61
2023/09/27 11:17:54;;;;;;;6.20;1.38;;;25.00;99.90;;;;;;5020738;28;20681;-61
2023/09/27 11:20:21;;;;;;;2.65;1.50;;;25.00;99.90;;;;;;5023050;28;20675;-62
2023/09/27 11:22:56;;;;;;;2.78;1.40;;;25.10;99.90;;;;;;5021600;28;20268;-62
2023/09/27 11:25:26;;;;;;;2.47;1.10;;;25.30;99.90;;;;;;5018973;28;20210;-60
2023/09/27 11:27:53;;;;;;;1.40;1.20;;;25.40;99.90;;;;;;5021469;28;20211;-61
2023/09/27 11:30:26;;;;;;;2.20;1.65;;;25.50;99.90;;;;;;5017243;28;20215;-62
2023/09/27 11:32:53;;;;;;;2.00;1.23;;;25.60;99.90;;;;;;5021215;28;20214;-63
2023/09/27 11:35:20;;;;;;;1.17;1.08;;;25.70;99.90;;;;;;5022279;28;20305;-61
2023/09/27 11:37:47;;;;;;;1.50;0.82;;;25.80;99.90;;;;;;5021488;28;20248;-61
2023/09/27 11:40:14;;;;;;;1.23;1.10;;;25.70;99.90;;;;;;5023106;28;20206;-62
2023/09/27 11:42:43;;;;;;;1.70;1.00;;;25.60;99.60;;;;;;5022563;28;20277;-61
2023/09/27 11:45:12;;;;;;;1.55;0.98;;;25.70;99.30;;;;;;5022345;28;20202;-63
2023/09/27 11:47:47;;;;;;;1.60;1.10;;;25.80;99.20;;;;;;5022450;28;20210;-60
2023/09/27 11:50:14;;;;;;;2.63;1.10;;;25.80;99.20;;;;;;5018981;28;20256;-62
2023/09/27 11:52:42;;;;;;;1.50;1.10;;;25.90;99.00;;;;;;5019125;28;20218;-62
2023/09/27 11:55:10;;;;;;;2.17;1.40;;;25.80;99.10;;;;;;5022050;28;20262;-62
2023/09/27 11:57:37;;;;;;;2.08;1.10;;;25.90;99.30;;;;;;5022688;28;20688;-61
2023/09/27 12:00:08;;;;;;;1.80;1.20;;;26.10;98.70;;;;;;5021922;28;20206;-63
2023/09/27 12:02:34;;;;;;;2.15;1.25;;;26.20;98.70;;;;;;5022705;28;20285;-63
2023/09/27 12:05:04;;;;;;;7.75;1.30;;;26.20;99.20;;;;;;5021101;28;20210;-62
2023/09/27 12:07:32;;;;;;;1.25;1.13;;;26.30;99.00;;;;;;5022697;28;20236;-60
2023/09/27 12:09:58;;;;;;;1.42;1.00;;;26.30;98.70;;;;;;5020106;28;20301;-63
2023/09/27 12:12:25;;;;;;;1.23;1.13;;;26.50;98.10;;;;;;5025187;28;20233;-59
2023/09/27 12:14:52;;;;;;;1.67;1.17;;;26.70;97.80;;;;;;5028799;28;20222;-58
2023/09/27 12:17:18;;;;;;;1.50;0.95;;;26.70;97.60;;;;;;5018458;28;20234;-58
2023/09/27 12:19:45;;;;;;;1.30;1.20;;;26.80;97.50;;;;;;5019935;28;20218;-58
2023/09/27 12:22:13;;;;;;;1.75;1.30;;;26.90;97.10;;;;;;5023096;28;20241;-58
2023/09/27 12:24:40;;;;;;;1.33;1.00;;;27.00;97.10;;;;;;5023035;28;20570;-60
2023/09/27 12:27:08;;;;;;;1.08;0.98;;;27.00;97.10;;;;;;5018620;28;20238;-60
2023/09/27 12:29:35;;;;;;;3.88;1.30;;;27.10;97.20;;;;;;5018867;28;20215;-60
2023/09/27 12:32:02;;;;;;;3.15;1.30;;;26.90;97.10;;;;;;5027095;28;20736;-59
2023/09/27 12:34:29;;;;;;;5.25;1.30;;;26.80;97.20;;;;;;5019038;28;20575;-59
2023/09/27 12:36:56;;;;;;;1.42;1.05;;;26.70;97.50;;;;;;5020534;28;20230;-60
2023/09/27 12:39:24;;;;;;;2.47;1.20;;;26.60;96.90;;;;;;5022391;28;20218;-59
2023/09/27 12:41:51;;;;;;;2.53;1.20;;;26.60;96.80;;;;;;5020878;28;20214;-59
2023/09/27 12:44:18;;;;;;;3.42;1.40;;;26.70;96.70;;;;;;5018775;28;20230;-60
2023/09/27 12:46:45;;;;;;;1.35;1.10;;;26.80;96.80;;;;;;5019020;28;20239;-59
2023/09/27 12:49:11;;;;;;;1.48;1.30;;;26.90;96.50;;;;;;5022552;28;20210;-60
2023/09/27 12:51:38;;;;;;;1.42;1.13;;;27.10;96.00;;;;;;5022280;28;20556;-59